To NAV CANADA Home Page Login to a new session Search on AWWS site Feedback and Comments Disclaimer Vers la page française équivalente Tips FAQ What's new on the site To the Forecasts and Observations / NOTAM section To "File a Flight Plan" website Publications and other links Update of the User's profile FIC Telephone Numbers My Weather Data Folder Route Weather Data Regional Weather Data Local Weather Data To the Forecasts and Observations / NOTAM section
Request Generated 02/24/2017 at 03:35:34 UTC . Weather information available at that time is displayed.

METAR/TAF

GANDER/GANDER INTL/NL    

METAR CYQX 240300Z 18003KT 20SM FEW085 BKN100 M03/M05 A2980 RMK
AC1AC4 SLP100=
METAR CYQX 240200Z 18006KT 20SM BKN100 OVC190 M02/M05 A2982 RMK
AC7AC1 SLP106=
METAR CYQX 240100Z 21005KT 20SM SCT120 BKN190 BKN230 M02/M05 A2982
RMK AC4AC2CS1 SLP108=

TAF CYQX 232339Z 2400/2424 30005KT P6SM SKC
FM240200 24010KT P6SM SCT015 BKN060 OVC100 TEMPO 2402/2406 4SM
-SN BKN015
FM240600 22012KT 2SM -SN SCT007 BKN012 TEMPO 2406/2408 3SM -FZRA
BR BKN007 OVC012
FM240800 21018KT 4SM -RA BR BKN008 OVC012
FM241100 23020KT 5SM -SHRA -DZ BR SCT008 OVC015
FM241500 25018G28KT P6SM -SHRA SCT008 OVC015
FM242100 34010KT 6SM -SHSN OVC010
RMK NXT FCST BY 240600Z=
Your time UTC time
Weather data provided by Environment Canada and NAV CANADA